Time;durP1;ratioP1;P1;durP2;ratioP2;P2;SDS_P1;SDS_P2;PMS_P1;PMS_P2;Temp;Humidity;BMP_temperature;BMP_pressure;BME280_temperature;BME280_humidity;BME280_pressure;Samples;Min_cycle;Max_cycle;Signal;HPM_P1;HPM_P2
2023/02/23 00:01:36;;;;;;;6.35;5.95;;;5.70;93.10;;;;;;5070102;28;19904;-79
2023/02/23 00:04:02;;;;;;;;;;;5.70;93.00;;;;;;5070379;28;20024;-79
2023/02/23 00:06:29;;;;;;;6.40;6.00;;;5.70;93.10;;;;;;5070011;28;19911;-79
2023/02/23 00:08:56;;;;;;;5.80;5.50;;;5.70;93.20;;;;;;5069827;28;20482;-79
2023/02/23 00:11:23;;;;;;;6.38;6.00;;;5.70;93.00;;;;;;5069875;28;20024;-79
2023/02/23 00:13:49;;;;;;;6.13;5.82;;;5.70;93.10;;;;;;5069890;28;20083;-79
2023/02/23 00:16:21;;;;;;;5.60;5.30;;;5.60;93.00;;;;;;5069687;28;20310;-80
2023/02/23 00:18:54;;;;;;;5.90;5.60;;;5.60;93.00;;;;;;5069657;28;20040;-79
2023/02/23 00:21:22;;;;;;;5.10;4.80;;;5.60;93.10;;;;;;5069637;28;20468;-79
2023/02/23 00:24:17;;;;;;;5.40;5.10;;;5.60;93.10;;;;;;5069704;28;20086;-79
2023/02/23 00:26:46;;;;;;;5.20;4.90;;;5.60;93.10;;;;;;5069569;28;20048;-79
2023/02/23 00:29:16;;;;;;;5.13;4.82;;;5.60;93.10;;;;;;5069483;28;20021;-80
2023/02/23 00:31:43;;;;;;;5.03;4.72;;;5.60;93.10;;;;;;5069581;28;20476;-79
2023/02/23 00:34:11;;;;;;;5.40;5.10;;;5.60;93.10;;;;;;5051229;28;20601;-79
2023/02/23 00:36:37;;;;;;;5.15;4.85;;;5.60;93.00;;;;;;5069327;28;20052;-79
2023/02/23 00:39:30;;;;;;;5.38;5.07;;;5.50;93.00;;;;;;5069233;28;20089;-79
2023/02/23 00:42:01;;;;;;;4.50;4.20;;;5.50;93.00;;;;;;5068748;28;20053;-79
2023/02/23 00:44:27;;;;;;;4.60;4.30;;;5.50;93.00;;;;;;5069115;28;20024;-78
2023/02/23 00:46:52;;;;;;;5.03;4.72;;;5.50;93.00;;;;;;5067898;28;20059;-79
2023/02/23 00:49:21;;;;;;;4.65;4.35;;;5.50;93.00;;;;;;5069043;28;20037;-79
2023/02/23 00:51:47;;;;;;;4.43;4.13;;;5.40;93.00;;;;;;5069178;28;20024;-79
2023/02/23 00:54:13;;;;;;;;;;;5.40;93.00;;;;;;5069375;28;20476;-80
2023/02/23 00:56:39;;;;;;;3.90;3.60;;;5.40;93.00;;;;;;5068911;28;20378;-79
2023/02/23 00:59:05;;;;;;;;;;;5.40;92.90;;;;;;5069232;28;20047;-79
2023/02/23 01:01:31;;;;;;;4.32;4.03;;;5.40;92.90;;;;;;5068755;28;19932;-79
2023/02/23 01:03:57;;;;;;;4.38;4.07;;;5.40;92.90;;;;;;5068893;28;20134;-79
2023/02/23 01:06:23;;;;;;;3.80;3.50;;;5.40;92.90;;;;;;5051102;28;20037;-79
2023/02/23 01:08:55;;;;;;;3.80;3.50;;;5.40;92.80;;;;;;5068542;28;20029;-79
2023/02/23 01:11:23;;;;;;;4.20;3.90;;;5.40;92.80;;;;;;5050710;28;20037;-79
2023/02/23 01:13:53;;;;;;;4.22;3.92;;;5.40;92.80;;;;;;5050735;28;20025;-79
2023/02/23 01:16:25;;;;;;;4.53;4.22;;;5.40;92.80;;;;;;5068672;28;20021;-79
2023/02/23 01:18:50;;;;;;;4.18;3.88;;;5.40;92.80;;;;;;5068501;28;20406;-79
2023/02/23 01:21:38;;;;;;;4.50;4.20;;;5.40;92.70;;;;;;5068329;28;20032;-79
2023/02/23 01:24:06;;;;;;;4.20;3.90;;;5.30;92.70;;;;;;5068338;28;20128;-79
2023/02/23 01:26:37;;;;;;;4.25;3.95;;;5.30;92.70;;;;;;5068283;28;20016;-79
2023/02/23 01:29:07;;;;;;;4.32;4.03;;;5.20;92.70;;;;;;5050405;28;20027;-79
2023/02/23 01:31:34;;;;;;;4.00;3.70;;;5.20;92.70;;;;;;5068493;28;20021;-79
2023/02/23 01:34:01;;;;;;;4.40;4.10;;;5.10;92.70;;;;;;5068624;28;20055;-79
2023/02/23 01:36:28;;;;;;;4.75;4.45;;;5.10;92.70;;;;;;5068159;28;20084;-79
2023/02/23 01:38:55;;;;;;;4.60;4.30;;;5.10;92.70;;;;;;5068078;28;20041;-78
2023/02/23 01:41:23;;;;;;;5.90;5.60;;;5.00;92.70;;;;;;5068043;28;20033;-79
2023/02/23 01:43:59;;;;;;;5.18;4.88;;;5.00;92.70;;;;;;5050134;28;20044;-79
2023/02/23 01:46:25;;;;;;;6.05;5.75;;;5.00;92.70;;;;;;5067968;28;20045;-79
2023/02/23 01:48:51;;;;;;;;;;;5.00;92.60;;;;;;5068434;28;20088;-79
2023/02/23 01:51:22;;;;;;;5.90;5.60;;;4.90;92.60;;;;;;5068122;28;19922;-79
2023/02/23 01:54:06;;;;;;;5.93;5.63;;;4.90;92.60;;;;;;5067847;28;20063;-79
2023/02/23 01:56:35;;;;;;;5.60;5.30;;;4.90;92.60;;;;;;5049879;28;20043;-79
2023/02/23 01:59:06;;;;;;;6.88;6.47;;;4.80;92.60;;;;;;5067646;28;20438;-79
2023/02/23 02:01:31;;;;;;;6.95;6.55;;;4.90;92.60;;;;;;5067778;28;20443;-79
2023/02/23 02:04:01;;;;;;;7.28;6.88;;;4.90;92.60;;;;;;5067861;28;20059;-79
2023/02/23 02:06:28;;;;;;;7.55;7.15;;;4.90;92.60;;;;;;5067529;28;20086;-79
2023/02/23 02:08:58;;;;;;;7.75;7.35;;;4.80;92.60;;;;;;5067613;28;20443;-79
2023/02/23 02:11:29;;;;;;;6.90;6.50;;;4.90;92.60;;;;;;5067709;28;20048;-79
2023/02/23 02:14:03;;;;;;;6.97;6.57;;;4.80;92.50;;;;;;5067781;28;20021;-79
2023/02/23 02:16:32;;;;;;;6.55;6.15;;;4.80;92.50;;;;;;5067661;28;20059;-79
2023/02/23 02:19:22;;;;;;;6.80;6.40;;;4.70;92.60;;;;;;5067521;28;20100;-79
2023/02/23 02:22:13;;;;;;;7.70;7.30;;;4.70;92.60;;;;;;5067595;28;20172;-79
2023/02/23 02:24:46;;;;;;;7.60;7.20;;;4.60;92.70;;;;;;5067586;28;20032;-79
2023/02/23 02:27:36;;;;;;;7.18;6.78;;;4.60;92.70;;;;;;5049479;28;20504;-79
2023/02/23 02:30:28;;;;;;;7.80;7.40;;;4.50;92.70;;;;;;5067729;28;20021;-79
2023/02/23 02:33:06;;;;;;;8.23;7.82;;;4.50;92.70;;;;;;5067437;28;20028;-79
2023/02/23 02:35:40;;;;;;;7.88;7.47;;;4.40;92.80;;;;;;5067557;28;20039;-79
2023/02/23 02:38:28;;;;;;;8.32;7.93;;;4.40;92.80;;;;;;5067277;28;20029;-79
2023/02/23 02:41:00;;;;;;;;;;;4.40;92.80;;;;;;5067975;28;20059;-79
2023/02/23 02:43:49;;;;;;;7.82;7.43;;;4.30;92.80;;;;;;5067384;28;20279;-79
2023/02/23 02:46:21;;;;;;;7.65;7.25;;;4.30;92.80;;;;;;5067138;28;20060;-79
2023/02/23 02:49:09;;;;;;;7.63;7.22;;;4.30;92.80;;;;;;5067358;28;20024;-79
2023/02/23 02:51:39;;;;;;;;;;;4.30;92.80;;;;;;5049961;28;20024;-79
2023/02/23 02:54:13;;;;;;;8.23;7.82;;;4.20;92.80;;;;;;5067310;28;19962;-79
2023/02/23 02:56:42;;;;;;;8.00;7.60;;;4.20;92.70;;;;;;5049461;28;20503;-79
2023/02/23 04:17:57;;;;;;;8.45;8.05;;;3.90;92.60;;;;;;5069764;28;20028;-79
2023/02/23 04:20:24;;;;;;;9.45;8.95;;;3.90;92.50;;;;;;5069699;28;20028;-79
2023/02/23 04:22:50;;;;;;;8.68;8.27;;;3.90;92.50;;;;;;5069634;28;20492;-79
2023/02/23 04:25:21;;;;;;;8.85;8.45;;;3.90;92.50;;;;;;5069710;28;20093;-79
2023/02/23 04:27:48;;;;;;;8.65;8.25;;;3.90;92.60;;;;;;5051597;28;20082;-79
2023/02/23 04:30:14;;;;;;;8.85;8.45;;;3.90;92.60;;;;;;5069442;28;20078;-79
2023/02/23 04:32:40;;;;;;;9.73;9.23;;;3.90;92.60;;;;;;5069561;28;20032;-79
2023/02/23 04:35:06;;;;;;;10.20;9.70;;;3.80;92.60;;;;;;5069506;28;20036;-79
2023/02/23 04:37:32;;;;;;;9.20;8.80;;;3.70;92.60;;;;;;5069398;28;20067;-79
2023/02/23 04:39:58;;;;;;;10.60;10.10;;;3.70;92.60;;;;;;5034815;28;20101;-79
2023/02/23 04:42:23;;;;;;;10.25;9.75;;;3.70;92.90;;;;;;5069310;28;20480;-79
2023/02/23 04:44:49;;;;;;;9.48;8.98;;;3.70;92.60;;;;;;5069058;28;20043;-78
2023/02/23 04:47:16;;;;;;;10.95;10.45;;;3.70;92.60;;;;;;5051177;28;20040;-79
2023/02/23 04:49:42;;;;;;;10.73;10.23;;;3.70;92.70;;;;;;5069348;28;20028;-79
2023/02/23 04:52:08;;;;;;;10.80;10.30;;;3.70;92.70;;;;;;5069189;28;20523;-79
2023/02/23 04:54:38;;;;;;;9.70;9.20;;;3.60;92.60;;;;;;5068996;28;20398;-79
2023/02/23 04:57:04;;;;;;;11.30;10.80;;;3.60;92.60;;;;;;5069159;28;20384;-79
2023/02/23 04:59:30;;;;;;;;;;;3.60;92.70;;;;;;5069391;28;20105;-79
2023/02/23 05:01:56;;;;;;;11.40;10.90;;;3.70;92.70;;;;;;5068878;28;20386;-79
2023/02/23 05:04:21;;;;;;;11.13;10.63;;;3.70;92.60;;;;;;5050874;28;20051;-79
2023/02/23 05:06:47;;;;;;;11.50;11.00;;;3.60;92.60;;;;;;5050757;28;20040;-79
2023/02/23 05:09:13;;;;;;;11.82;11.32;;;3.60;92.60;;;;;;5069285;28;20164;-79
2023/02/23 05:11:39;;;;;;;12.05;11.55;;;3.60;92.60;;;;;;5050785;28;20032;-79
2023/02/23 05:14:05;;;;;;;11.00;10.50;;;3.60;92.60;;;;;;5068690;28;20043;-79
2023/02/23 05:16:30;;;;;;;10.70;10.20;;;3.60;92.60;;;;;;5068623;28;20025;-79
2023/02/23 05:18:56;;;;;;;10.35;9.85;;;3.60;92.60;;;;;;5068379;28;20032;-79
2023/02/23 05:21:23;;;;;;;10.70;10.20;;;3.60;92.60;;;;;;5068512;28;20119;-79
2023/02/23 05:23:49;;;;;;;10.63;10.13;;;3.60;92.60;;;;;;5050458;28;20031;-79
2023/02/23 05:26:16;;;;;;;11.55;11.05;;;3.60;92.60;;;;;;5068524;28;20113;-79
2023/02/23 05:28:42;;;;;;;11.45;10.95;;;3.60;92.60;;;;;;5068350;28;20039;-79
2023/02/23 05:31:08;;;;;;;;;;;3.60;92.50;;;;;;5068812;28;20027;-79
2023/02/23 05:33:41;;;;;;;11.40;10.90;;;3.60;92.50;;;;;;5067477;28;19934;-79
2023/02/23 05:36:11;;;;;;;12.88;12.27;;;3.60;92.40;;;;;;5068197;28;20053;-79
2023/02/23 05:38:38;;;;;;;12.70;12.10;;;3.60;92.40;;;;;;5068097;28;20031;-79
2023/02/23 05:41:13;;;;;;;13.00;12.40;;;3.60;92.40;;;;;;5050221;28;20021;-79
2023/02/23 05:43:38;;;;;;;12.65;12.05;;;3.60;92.40;;;;;;5068135;28;20024;-72
2023/02/23 05:46:09;;;;;;;13.90;13.30;;;3.60;92.50;;;;;;5068087;28;20121;-79
2023/02/23 05:48:35;;;;;;;13.52;12.93;;;3.50;92.50;;;;;;5049786;28;20040;-79
2023/02/23 05:51:03;;;;;;;15.57;14.88;;;3.50;92.50;;;;;;5049956;28;20373;-79
2023/02/23 05:53:28;;;;;;;14.18;13.57;;;3.50;92.50;;;;;;5067763;28;20310;-79
2023/02/23 05:55:54;;;;;;;13.40;12.80;;;3.50;92.50;;;;;;5067901;28;20074;-79
2023/02/23 05:58:20;;;;;;;13.77;13.18;;;3.50;92.50;;;;;;5067750;28;20131;-79
2023/02/23 06:00:45;;;;;;;13.80;13.20;;;3.50;92.40;;;;;;5049950;28;20024;-79
2023/02/23 06:03:11;;;;;;;14.50;13.90;;;3.50;92.40;;;;;;5067869;28;20364;-79
2023/02/23 06:05:37;;;;;;;15.00;14.40;;;3.50;92.40;;;;;;5067795;28;20032;-79
2023/02/23 06:08:02;;;;;;;15.13;14.52;;;3.50;92.40;;;;;;5067514;28;20037;-79
2023/02/23 06:10:28;;;;;;;14.32;13.73;;;3.50;92.40;;;;;;5067654;28;20492;-79
2023/02/23 06:12:54;;;;;;;14.52;13.93;;;3.50;92.40;;;;;;5067712;28;20082;-79
2023/02/23 06:15:19;;;;;;;14.70;14.10;;;3.50;92.40;;;;;;5067553;28;20090;-78
2023/02/23 06:17:45;;;;;;;14.20;13.60;;;3.40;92.40;;;;;;5067503;28;20417;-78
2023/02/23 06:20:11;;;;;;;15.13;14.52;;;3.40;92.40;;;;;;5067210;28;20043;-79
2023/02/23 06:22:37;;;;;;;14.70;14.10;;;3.40;92.50;;;;;;5067455;28;20036;-78
2023/02/23 06:25:04;;;;;;;14.88;14.27;;;3.40;92.40;;;;;;5067431;28;20028;-79
2023/02/23 06:27:30;;;;;;;17.35;16.65;;;3.40;92.40;;;;;;5067544;28;20033;-79
2023/02/23 06:29:56;;;;;;;18.00;17.30;;;3.40;92.40;;;;;;5067385;28;20115;-79
2023/02/23 06:32:22;;;;;;;19.23;18.42;;;3.40;92.30;;;;;;5032965;28;20119;-82
2023/02/23 06:34:47;;;;;;;20.40;19.60;;;3.40;92.30;;;;;;5049539;28;20352;-78
2023/02/23 06:37:13;;;;;;;18.88;18.08;;;3.40;92.30;;;;;;5067500;28;20024;-79
2023/02/23 06:39:39;;;;;;;17.75;17.05;;;3.40;92.20;;;;;;5067363;28;20384;-79
2023/02/23 06:42:04;;;;;;;18.65;17.85;;;3.40;92.20;;;;;;5049631;28;20032;-79
2023/02/23 06:44:34;;;;;;;16.00;15.30;;;3.40;92.20;;;;;;5068706;28;20060;-78
2023/02/23 06:46:59;;;;;;;18.77;17.98;;;3.30;92.20;;;;;;5071123;28;20048;-79
2023/02/23 06:49:25;;;;;;;16.20;15.50;;;3.30;92.20;;;;;;5071888;28;20036;-79
2023/02/23 06:51:51;;;;;;;17.45;16.75;;;3.20;92.20;;;;;;5071368;28;20036;-79
2023/02/23 06:54:17;;;;;;;17.70;17.00;;;3.20;92.20;;;;;;5071505;28;20082;-79
2023/02/23 06:56:43;;;;;;;;;;;3.20;92.20;;;;;;5071527;28;20032;-79
2023/02/23 06:59:08;;;;;;;18.35;17.60;;;3.20;92.20;;;;;;5070783;28;19908;-79
2023/02/23 07:01:34;;;;;;;17.75;17.05;;;3.20;92.20;;;;;;5070953;28;20060;-79
2023/02/23 07:04:00;;;;;;;18.27;17.55;;;3.20;92.20;;;;;;5070892;28;20492;-79
2023/02/23 07:06:25;;;;;;;18.90;18.10;;;3.20;92.20;;;;;;5052971;28;20031;-78
2023/02/23 07:08:51;;;;;;;18.98;18.17;;;3.20;92.20;;;;;;5070713;28;20028;-78
2023/02/23 07:11:18;;;;;;;20.70;19.90;;;3.30;92.50;;;;;;5071127;28;20059;-79
2023/02/23 07:13:44;;;;;;;18.33;17.58;;;3.30;92.20;;;;;;5071973;28;20396;-75
2023/02/23 07:16:10;;;;;;;20.60;19.80;;;3.30;92.20;;;;;;5070733;28;20103;-79
2023/02/23 07:18:36;;;;;;;23.20;22.30;;;3.30;92.20;;;;;;5070667;28;20052;-79
2023/02/23 07:21:02;;;;;;;22.23;21.33;;;3.30;92.20;;;;;;5052852;28;20057;-79
2023/02/23 07:23:28;;;;;;;22.80;21.90;;;3.30;92.20;;;;;;5070646;28;20050;-79
2023/02/23 07:25:55;;;;;;;23.20;22.30;;;3.30;92.30;;;;;;5035953;28;20043;-78
2023/02/23 07:28:21;;;;;;;23.83;22.92;;;3.30;92.30;;;;;;5069905;28;20476;-78
2023/02/23 07:30:48;;;;;;;24.40;23.40;;;3.30;92.30;;;;;;5070008;28;20013;-78
2023/02/23 07:33:14;;;;;;;24.10;23.20;;;3.30;92.30;;;;;;5070361;28;20028;-78
2023/02/23 07:35:41;;;;;;;24.13;23.20;;;3.30;92.30;;;;;;5035582;28;20123;-70
2023/02/23 07:38:07;;;;;;;25.08;24.08;;;3.40;92.30;;;;;;5069799;28;20028;-70
2023/02/23 07:40:33;;;;;;;23.90;23.00;;;3.40;92.30;;;;;;5069837;28;20031;-70
2023/02/23 07:42:59;;;;;;;23.80;22.90;;;3.40;92.30;;;;;;5070142;28;20028;-70
2023/02/23 07:45:25;;;;;;;23.00;22.10;;;3.50;92.40;;;;;;5070006;28;20032;-70
2023/02/23 07:47:51;;;;;;;25.55;24.55;;;3.50;92.40;;;;;;5069907;28;20545;-69
2023/02/23 07:50:17;;;;;;;27.27;26.20;;;3.50;92.40;;;;;;5051874;28;20500;-69
2023/02/23 07:52:42;;;;;;;26.77;25.77;;;3.60;92.40;;;;;;5069750;28;20383;-68
2023/02/23 07:55:10;;;;;;;27.80;26.70;;;3.70;92.60;;;;;;5069189;28;20502;-69
2023/02/23 07:57:36;;;;;;;25.20;24.20;;;3.90;92.70;;;;;;5051528;28;20483;-69
2023/02/23 08:00:04;;;;;;;27.15;26.10;;;4.10;92.70;;;;;;5069033;28;20067;-70
2023/02/23 08:02:31;;;;;;;27.70;26.60;;;4.20;92.70;;;;;;5069870;28;20033;-70
2023/02/23 08:04:56;;;;;;;28.25;27.15;;;4.30;92.60;;;;;;5069661;28;20054;-70
2023/02/23 08:07:24;;;;;;;25.02;24.02;;;4.40;92.50;;;;;;5069198;28;20113;-69
2023/02/23 08:09:51;;;;;;;27.58;26.48;;;4.60;92.60;;;;;;5069211;28;20025;-70
2023/02/23 08:12:16;;;;;;;;;;;4.70;92.70;;;;;;5069798;28;20368;-70
2023/02/23 08:14:42;;;;;;;21.95;21.05;;;4.80;92.70;;;;;;5069251;28;19905;-70
2023/02/23 08:17:09;;;;;;;20.88;20.08;;;4.80;92.50;;;;;;5069452;28;20329;-69
2023/02/23 08:19:36;;;;;;;21.05;20.25;;;4.80;92.60;;;;;;5069287;28;20072;-69
2023/02/23 08:22:02;;;;;;;23.00;22.10;;;4.80;92.70;;;;;;5069412;28;20430;-69
2023/02/23 08:24:29;;;;;;;22.83;21.92;;;5.00;92.70;;;;;;5069089;28;20593;-69
2023/02/23 08:26:56;;;;;;;22.05;21.15;;;5.10;92.60;;;;;;5068977;28;20035;-70
2023/02/23 08:29:21;;;;;;;23.48;22.58;;;5.30;92.80;;;;;;5069050;28;20029;-70
2023/02/23 08:31:47;;;;;;;25.98;24.98;;;5.50;92.70;;;;;;5068943;28;20032;-69
2023/02/23 08:34:13;;;;;;;25.05;24.05;;;5.50;92.30;;;;;;5068667;28;20120;-70
2023/02/23 08:36:39;;;;;;;20.42;19.63;;;5.40;92.20;;;;;;5068803;28;20020;-69
2023/02/23 08:39:06;;;;;;;22.27;21.38;;;5.40;92.40;;;;;;5068605;28;20085;-70
2023/02/23 08:41:33;;;;;;;21.90;21.00;;;5.50;92.70;;;;;;5068447;28;20033;-70
2023/02/23 08:43:59;;;;;;;21.92;21.02;;;5.60;92.80;;;;;;5069391;28;20033;-69
2023/02/23 08:46:25;;;;;;;22.17;21.27;;;5.70;92.70;;;;;;5046472;28;20079;-69
2023/02/23 08:48:51;;;;;;;22.13;21.23;;;5.80;92.60;;;;;;5030722;28;20477;-69
2023/02/23 08:51:17;;;;;;;22.70;21.80;;;5.80;92.50;;;;;;5046908;28;20035;-69
2023/02/23 08:53:43;;;;;;;19.88;19.08;;;5.80;92.50;;;;;;5046870;28;20029;-69
2023/02/23 08:56:11;;;;;;;18.92;18.13;;;6.00;93.20;;;;;;5047967;28;20468;-70
2023/02/23 08:58:37;;;;;;;13.25;12.65;;;6.70;93.80;;;;;;5048003;28;20040;-70
2023/02/23 09:01:04;;;;;;;10.57;10.07;;;7.60;94.10;;;;;;5048056;28;20108;-70
2023/02/23 09:03:30;;;;;;;;;;;8.60;94.10;;;;;;5048235;28;20036;-70
2023/02/23 09:05:58;;;;;;;4.50;4.20;;;9.40;93.90;;;;;;5047801;28;19963;-70
2023/02/23 09:08:24;;;;;;;0.80;0.80;;;10.20;93.80;;;;;;5046870;28;20458;-70
2023/02/23 09:10:49;;;;;;;0.40;0.40;;;10.90;94.20;;;;;;5047731;28;20018;-70
2023/02/23 09:13:16;;;;;;;0.20;0.20;;;11.70;94.30;;;;;;5046807;28;20421;-70
2023/02/23 09:15:42;;;;;;;0.30;0.30;;;12.40;94.40;;;;;;5046523;28;20025;-70
2023/02/23 09:18:12;;;;;;;0.10;0.10;;;13.10;94.40;;;;;;5047793;28;20368;-70
2023/02/23 09:20:41;;;;;;;0.10;0.10;;;13.80;94.40;;;;;;5048091;28;20040;-71
2023/02/23 09:23:07;;;;;;;0.10;0.10;;;14.40;94.30;;;;;;5047913;28;20017;-70
2023/02/23 09:25:33;;;;;;;0.00;0.00;;;15.00;94.30;;;;;;5047769;28;20104;-70
2023/02/23 09:27:59;;;;;;;0.03;0.03;;;15.50;94.10;;;;;;5047893;28;20033;-71
2023/02/23 09:30:26;;;;;;;0.00;0.00;;;15.90;94.00;;;;;;5046309;28;20534;-70
2023/02/23 09:32:54;;;;;;;0.00;0.00;;;16.20;94.10;;;;;;5047463;28;20036;-71
2023/02/23 09:35:22;;;;;;;0.00;0.00;;;16.60;94.20;;;;;;5046195;28;20535;-71
2023/02/23 09:37:50;;;;;;;0.00;0.00;;;16.90;94.10;;;;;;5047315;28;20033;-70
2023/02/23 09:40:20;;;;;;;0.00;0.00;;;17.10;94.10;;;;;;5047074;28;20473;-71
2023/02/23 09:43:07;;;;;;;0.00;0.00;;;17.40;94.20;;;;;;5047317;28;20020;-71
2023/02/23 09:45:59;;;;;;;0.00;0.00;;;17.80;94.30;;;;;;5053829;28;20052;-70
2023/02/23 09:48:27;;;;;;;0.00;0.00;;;18.00;94.10;;;;;;5067328;28;20040;-71
2023/02/23 09:50:58;;;;;;;0.00;0.00;;;18.30;93.90;;;;;;5067200;28;20078;-71
2023/02/23 09:53:36;;;;;;;0.00;0.00;;;18.50;94.10;;;;;;5067692;28;20070;-71
2023/02/23 09:56:24;;;;;;;0.00;0.00;;;18.60;94.10;;;;;;5048958;28;20448;-70
2023/02/23 09:58:50;;;;;;;0.00;0.00;;;18.80;94.20;;;;;;5052597;28;20043;-71
2023/02/23 10:01:18;;;;;;;;;;;18.90;94.40;;;;;;5067371;28;20021;-71
2023/02/23 10:04:04;;;;;;;0.00;0.00;;;19.00;94.40;;;;;;5067080;28;19973;-70
2023/02/23 10:06:30;;;;;;;0.00;0.00;;;19.30;94.50;;;;;;5066731;28;20024;-71
2023/02/23 10:09:04;;;;;;;;;;;19.60;94.70;;;;;;5066561;28;20024;-71
2023/02/23 10:12:19;;;;;;;0.00;0.00;;;20.00;94.80;;;;;;5058273;28;19904;-71
2023/02/23 10:15:13;;;;;;;0.08;0.08;;;20.40;94.80;;;;;;5001884;28;20104;-70
2023/02/23 10:18:02;;;;;;;0.00;0.00;;;20.80;94.70;;;;;;5053724;28;20025;-70
2023/02/23 10:20:33;;;;;;;0.00;0.00;;;21.00;94.70;;;;;;5058129;28;20024;-70
2023/02/23 10:23:06;;;;;;;0.20;0.20;;;21.10;94.40;;;;;;5054771;28;20071;-69
2023/02/23 10:25:37;;;;;;;0.00;0.00;;;21.10;94.50;;;;;;5056167;28;20037;-70
2023/02/23 10:28:02;;;;;;;0.00;0.00;;;21.30;94.60;;;;;;5056709;28;20020;-70
2023/02/23 10:30:31;;;;;;;0.00;0.00;;;21.40;94.90;;;;;;5057134;28;20376;-69
2023/02/23 10:33:06;;;;;;;0.00;0.00;;;21.50;95.10;;;;;;5056588;28;20409;-70
2023/02/23 10:35:33;;;;;;;0.00;0.00;;;21.70;95.20;;;;;;5053208;28;20028;-69
2023/02/23 10:38:01;;;;;;;0.00;0.00;;;22.00;95.10;;;;;;5059208;28;20039;-70
2023/02/23 10:40:31;;;;;;;0.10;0.10;;;22.20;94.90;;;;;;5058040;28;20029;-70
2023/02/23 10:42:58;;;;;;;0.00;0.00;;;22.20;94.80;;;;;;5059489;28;20025;-70
2023/02/23 10:45:26;;;;;;;0.00;0.00;;;22.20;94.70;;;;;;5061152;28;20099;-71
2023/02/23 10:48:12;;;;;;;0.00;0.00;;;21.80;94.90;;;;;;5041928;28;20022;-70
2023/02/23 10:50:39;;;;;;;0.00;0.00;;;21.60;95.70;;;;;;5049875;28;20072;-71
2023/02/23 10:53:26;;;;;;;0.00;0.00;;;22.00;96.00;;;;;;5037864;28;20060;-71
2023/02/23 10:56:06;;;;;;;0.00;0.00;;;22.40;95.80;;;;;;5032842;28;20028;-72
2023/02/23 10:58:56;;;;;;;0.00;0.00;;;22.70;95.60;;;;;;5027063;28;20033;-75
2023/02/23 11:01:43;;;;;;;0.88;0.35;;;22.90;95.50;;;;;;5027384;28;20022;-73
2023/02/23 11:04:30;;;;;;;0.00;0.00;;;22.80;95.20;;;;;;5027151;28;20025;-61
2023/02/23 11:07:17;;;;;;;0.00;0.00;;;22.40;95.60;;;;;;5027249;28;20065;-72
2023/02/23 11:09:42;;;;;;;0.00;0.00;;;22.10;95.80;;;;;;5027449;28;20519;-73
2023/02/23 11:12:34;;;;;;;0.00;0.00;;;21.90;96.10;;;;;;5009695;28;20037;-72
2023/02/23 11:15:25;;;;;;;0.00;0.00;;;21.80;96.20;;;;;;5008612;28;20028;-73
2023/02/23 11:18:21;;;;;;;0.00;0.00;;;21.50;95.90;;;;;;5026826;28;20159;-72
2023/02/23 11:20:48;;;;;;;0.00;0.00;;;21.50;96.40;;;;;;5004767;28;20388;-73
2023/02/23 11:23:30;;;;;;;0.00;0.00;;;21.60;96.60;;;;;;5027418;28;20039;-73
2023/02/23 11:25:59;;;;;;;0.00;0.00;;;21.80;96.40;;;;;;5027545;28;20048;-74
2023/02/23 11:28:32;;;;;;;0.00;0.00;;;21.60;96.10;;;;;;5027453;28;20040;-75
2023/02/23 11:31:19;;;;;;;0.00;0.00;;;21.50;96.40;;;;;;5028709;28;20047;-73
2023/02/23 11:33:46;;;;;;;0.00;0.00;;;21.60;96.60;;;;;;5030479;28;20037;-72
2023/02/23 11:36:33;;;;;;;0.00;0.00;;;21.80;96.70;;;;;;5013076;28;20052;-73
2023/02/23 11:39:07;;;;;;;0.00;0.00;;;22.10;96.60;;;;;;5030502;28;20091;-75
2023/02/23 11:41:35;;;;;;;0.20;0.10;;;21.70;95.90;;;;;;5030819;28;20424;-72
2023/02/23 11:44:03;;;;;;;0.00;0.00;;;21.30;96.20;;;;;;5030342;28;20053;-74
2023/02/23 11:46:31;;;;;;;0.00;0.00;;;21.20;96.70;;;;;;5042376;28;20131;-73
2023/02/23 11:49:05;;;;;;;0.00;0.00;;;21.30;96.80;;;;;;5059721;28;20464;-72
2023/02/23 11:51:35;;;;;;;0.00;0.00;;;21.40;96.90;;;;;;5037299;28;20048;-71
2023/02/23 11:54:03;;;;;;;0.00;0.00;;;21.30;96.40;;;;;;5060646;28;20013;-74
2023/02/23 11:56:32;;;;;;;0.00;0.00;;;20.70;95.80;;;;;;5058031;28;20104;-72
2023/02/23 11:59:00;;;;;;;0.00;0.00;;;20.20;96.60;;;;;;5040911;28;20228;-71
2023/02/23 12:01:48;;;;;;;0.00;0.00;;;20.20;96.90;;;;;;5060443;28;20020;-71
2023/02/23 12:04:35;;;;;;;0.00;0.00;;;20.40;97.10;;;;;;5057173;28;20047;-71
2023/02/23 12:07:25;;;;;;;0.00;0.00;;;20.70;97.10;;;;;;5041711;28;20040;-71
2023/02/23 12:10:21;;;;;;;0.00;0.00;;;21.00;96.90;;;;;;5059236;28;20017;-70
2023/02/23 12:12:56;;;;;;;0.00;0.00;;;20.90;96.60;;;;;;5027301;28;20039;-71
2023/02/23 12:15:31;;;;;;;0.00;0.00;;;20.70;96.60;;;;;;5039759;28;20027;-72
2023/02/23 12:18:10;;;;;;;0.00;0.00;;;20.70;97.10;;;;;;5060183;28;20031;-72
2023/02/23 12:20:43;;;;;;;0.00;0.00;;;21.10;97.50;;;;;;5060356;28;20025;-71
2023/02/23 12:23:14;;;;;;;0.00;0.00;;;21.40;96.70;;;;;;5039369;28;20037;-72
2023/02/23 12:26:03;;;;;;;0.00;0.00;;;21.40;96.70;;;;;;5055286;28;20049;-71
2023/02/23 12:28:33;;;;;;;0.00;0.00;;;20.90;96.20;;;;;;5039526;28;20029;-72
2023/02/23 12:31:17;;;;;;;0.00;0.00;;;20.60;96.90;;;;;;5060350;28;20038;-73
2023/02/23 12:33:52;;;;;;;0.00;0.00;;;20.70;97.10;;;;;;5056317;28;20017;-71
2023/02/23 12:36:38;;;;;;;0.00;0.00;;;20.70;97.10;;;;;;5057660;28;20400;-74
2023/02/23 12:39:19;;;;;;;0.00;0.00;;;20.70;96.90;;;;;;5056605;28;20017;-75
2023/02/23 12:42:26;;;;;;;0.00;0.00;;;20.70;97.20;;;;;;5059361;28;20025;-77
2023/02/23 12:44:55;;;;;;;0.00;0.00;;;20.60;97.10;;;;;;5028355;28;20033;-73
2023/02/23 12:47:50;;;;;;;0.00;0.00;;;20.70;97.30;;;;;;5057065;28;20080;-75
2023/02/23 12:50:29;;;;;;;0.00;0.00;;;20.70;97.00;;;;;;5056719;28;20036;-76
2023/02/23 12:53:12;;;;;;;0.00;0.00;;;20.50;96.30;;;;;;5040584;28;20029;-72
2023/02/23 12:56:03;;;;;;;0.00;0.00;;;19.80;96.00;;;;;;5059287;28;20021;-72
2023/02/23 12:58:49;;;;;;;0.00;0.00;;;19.10;96.60;;;;;;5056594;28;20484;-71
2023/02/23 13:01:32;;;;;;;0.00;0.00;;;18.90;97.10;;;;;;5053477;28;20035;-73
2023/02/23 13:04:36;;;;;;;0.00;0.00;;;19.10;97.40;;;;;;5058867;28;20410;-71
2023/02/23 13:07:33;;;;;;;0.00;0.00;;;19.40;97.10;;;;;;5038472;28;20098;-72
2023/02/23 13:09:59;;;;;;;;;;;19.30;96.80;;;;;;5069708;28;20012;-72
2023/02/23 13:12:54;;;;;;;0.00;0.00;;;19.00;96.70;;;;;;5068635;28;19975;-68
2023/02/23 13:15:27;;;;;;;0.00;0.00;;;18.70;96.60;;;;;;5068748;28;20026;-72
2023/02/23 13:18:05;;;;;;;0.00;0.00;;;18.40;96.80;;;;;;5044962;28;20029;-70
2023/02/23 13:20:43;;;;;;;0.00;0.00;;;18.20;96.60;;;;;;5038235;28;20021;-72
2023/02/23 13:23:32;;;;;;;0.00;0.00;;;18.00;96.70;;;;;;5055933;28;20017;-71
2023/02/23 13:26:37;;;;;;;0.00;0.00;;;17.90;96.80;;;;;;5058093;28;20025;-71
2023/02/23 13:29:03;;;;;;;0.00;0.00;;;17.60;96.60;;;;;;5015130;28;20033;-71
2023/02/23 13:31:32;;;;;;;;;;;17.60;96.80;;;;;;5048585;28;20020;-71
2023/02/23 13:34:00;;;;;;;0.00;0.00;;;17.70;96.70;;;;;;5050521;28;19909;-72
2023/02/23 13:36:28;;;;;;;0.00;0.00;;;17.70;96.00;;;;;;5055617;28;20025;-73
2023/02/23 13:39:15;;;;;;;0.00;0.00;;;17.40;96.00;;;;;;5052739;28;20036;-72
2023/02/23 13:41:56;;;;;;;0.00;0.00;;;17.30;96.10;;;;;;5058649;28;20047;-70
2023/02/23 13:44:51;;;;;;;0.00;0.00;;;17.30;96.10;;;;;;5035444;28;20029;-71
2023/02/23 13:47:56;;;;;;;0.00;0.00;;;17.30;95.90;;;;;;5012094;28;20048;-67
2023/02/23 13:50:32;;;;;;;0.00;0.00;;;17.00;95.90;;;;;;5028778;28;20141;-74
2023/02/23 13:53:04;;;;;;;0.00;0.00;;;16.90;95.90;;;;;;5048204;28;20036;-75
2023/02/23 13:55:35;;;;;;;0.00;0.00;;;17.00;95.90;;;;;;5030929;28;20121;-75
2023/02/23 13:58:26;;;;;;;0.00;0.00;;;17.00;95.60;;;;;;5048128;28;20024;-73
2023/02/23 14:01:04;;;;;;;0.00;0.00;;;16.90;95.30;;;;;;5029717;28;20033;-73
2023/02/23 14:03:35;;;;;;;0.00;0.00;;;16.60;95.20;;;;;;5048085;28;20032;-74
2023/02/23 14:06:02;;;;;;;0.20;0.20;;;16.30;95.00;;;;;;5048308;28;20029;-75
2023/02/23 14:08:36;;;;;;;0.00;0.00;;;15.90;94.90;;;;;;5028986;28;20032;-69
2023/02/23 14:11:03;;;;;;;0.00;0.00;;;15.50;95.20;;;;;;5047333;28;20021;-69
2023/02/23 14:13:39;;;;;;;0.00;0.00;;;15.50;95.30;;;;;;5030512;28;20029;-69
2023/02/23 14:16:19;;;;;;;0.00;0.00;;;15.40;95.00;;;;;;5048552;28;20048;-73
2023/02/23 14:19:30;;;;;;;0.00;0.00;;;15.40;95.00;;;;;;5047865;28;20110;-73
2023/02/23 14:22:01;;;;;;;0.00;0.00;;;15.30;95.00;;;;;;5047621;28;20120;-72
2023/02/23 14:24:28;;;;;;;0.00;0.00;;;15.20;94.90;;;;;;5048208;28;20501;-72
2023/02/23 14:27:06;;;;;;;0.32;0.20;;;15.10;94.80;;;;;;5047832;28;20024;-68
2023/02/23 14:29:39;;;;;;;0.00;0.00;;;15.10;94.70;;;;;;5047699;28;20449;-70
2023/02/23 14:32:11;;;;;;;0.00;0.00;;;15.00;94.60;;;;;;5047463;28;20116;-69
2023/02/23 14:34:52;;;;;;;0.00;0.00;;;15.00;94.50;;;;;;5053045;28;20017;-74